sensor_id;sensor_type;location;lat;lon;timestamp;P1;durP1;ratioP1;P2;durP2;ratioP2
10305;SDS011;5198;52.382;9.020;2023-04-30T00:03:09;215.70;;;58.80;;
10305;SDS011;5198;52.382;9.020;2023-04-30T00:07:12;218.40;;;59.40;;
10305;SDS011;5198;52.382;9.020;2023-04-30T00:11:15;218.05;;;58.95;;
10305;SDS011;5198;52.382;9.020;2023-04-30T00:15:20;219.20;;;59.80;;
10305;SDS011;5198;52.382;9.020;2023-04-30T00:19:23;219.00;;;59.50;;
10305;SDS011;5198;52.382;9.020;2023-04-30T00:23:26;216.97;;;58.80;;
10305;SDS011;5198;52.382;9.020;2023-04-30T00:31:33;220.10;;;59.80;;
10305;SDS011;5198;52.382;9.020;2023-04-30T00:35:36;217.33;;;58.20;;
10305;SDS011;5198;52.382;9.020;2023-04-30T00:39:39;215.40;;;56.50;;
10305;SDS011;5198;52.382;9.020;2023-04-30T00:43:42;214.10;;;55.60;;
10305;SDS011;5198;52.382;9.020;2023-04-30T00:47:48;215.40;;;56.20;;
10305;SDS011;5198;52.382;9.020;2023-04-30T00:51:51;214.80;;;55.50;;
10305;SDS011;5198;52.382;9.020;2023-04-30T00:55:56;217.45;;;56.40;;
10305;SDS011;5198;52.382;9.020;2023-04-30T00:59:59;218.55;;;56.85;;
10305;SDS011;5198;52.382;9.020;2023-04-30T01:04:03;219.87;;;57.50;;
10305;SDS011;5198;52.382;9.020;2023-04-30T01:08:07;220.65;;;57.70;;
10305;SDS011;5198;52.382;9.020;2023-04-30T01:12:12;220.20;;;57.10;;
10305;SDS011;5198;52.382;9.020;2023-04-30T01:16:22;218.50;;;56.20;;
10305;SDS011;5198;52.382;9.020;2023-04-30T01:20:29;222.80;;;58.00;;
10305;SDS011;5198;52.382;9.020;2023-04-30T01:24:38;224.25;;;58.85;;
10305;SDS011;5198;52.382;9.020;2023-04-30T01:28:52;224.30;;;58.70;;
10305;SDS011;5198;52.382;9.020;2023-04-30T01:32:58;224.95;;;59.25;;
10305;SDS011;5198;52.382;9.020;2023-04-30T01:37:04;225.80;;;59.20;;
10305;SDS011;5198;52.382;9.020;2023-04-30T01:41:19;225.47;;;59.13;;
10305;SDS011;5198;52.382;9.020;2023-04-30T01:45:42;225.10;;;58.80;;
10305;SDS011;5198;52.382;9.020;2023-04-30T07:10:44;213.85;;;57.65;;
10305;SDS011;5198;52.382;9.020;2023-04-30T09:21:04;215.90;;;60.45;;
10305;SDS011;5198;52.382;9.020;2023-04-30T09:25:09;212.10;;;58.88;;
10305;SDS011;5198;52.382;9.020;2023-04-30T09:33:16;221.88;;;60.65;;
10305;SDS011;5198;52.382;9.020;2023-04-30T09:37:20;211.65;;;58.90;;
10305;SDS011;5198;52.382;9.020;2023-04-30T09:41:24;216.60;;;60.30;;
10305;SDS011;5198;52.382;9.020;2023-04-30T09:45:39;215.95;;;60.10;;
10305;SDS011;5198;52.382;9.020;2023-04-30T09:49:42;218.05;;;60.20;;
10305;SDS011;5198;52.382;9.020;2023-04-30T09:53:48;217.70;;;60.70;;
10305;SDS011;5198;52.382;9.020;2023-04-30T09:57:52;215.10;;;60.20;;
10305;SDS011;5198;52.382;9.020;2023-04-30T10:01:58;214.18;;;59.80;;
10305;SDS011;5198;52.382;9.020;2023-04-30T10:06:02;212.50;;;59.55;;
10305;SDS011;5198;52.382;9.020;2023-04-30T10:10:06;211.05;;;58.85;;
10305;SDS011;5198;52.382;9.020;2023-04-30T10:14:11;213.40;;;60.45;;
10305;SDS011;5198;52.382;9.020;2023-04-30T10:18:18;204.95;;;56.80;;
10305;SDS011;5198;52.382;9.020;2023-04-30T10:22:23;211.40;;;58.90;;
10305;SDS011;5198;52.382;9.020;2023-04-30T10:26:26;211.15;;;59.10;;
10305;SDS011;5198;52.382;9.020;2023-04-30T10:30:31;208.03;;;58.13;;
10305;SDS011;5198;52.382;9.020;2023-04-30T10:34:41;207.90;;;57.27;;
10305;SDS011;5198;52.382;9.020;2023-04-30T10:38:49;214.70;;;59.20;;
10305;SDS011;5198;52.382;9.020;2023-04-30T10:42:53;206.20;;;57.20;;
10305;SDS011;5198;52.382;9.020;2023-04-30T10:46:59;206.10;;;56.70;;
10305;SDS011;5198;52.382;9.020;2023-04-30T10:51:04;208.10;;;57.50;;
10305;SDS011;5198;52.382;9.020;2023-04-30T10:55:10;206.83;;;57.07;;
10305;SDS011;5198;52.382;9.020;2023-04-30T10:59:18;215.35;;;59.30;;
10305;SDS011;5198;52.382;9.020;2023-04-30T11:03:21;216.40;;;59.55;;
10305;SDS011;5198;52.382;9.020;2023-04-30T11:07:26;218.20;;;60.30;;
10305;SDS011;5198;52.382;9.020;2023-04-30T11:11:32;210.50;;;57.80;;
10305;SDS011;5198;52.382;9.020;2023-04-30T11:15:38;210.47;;;57.20;;
10305;SDS011;5198;52.382;9.020;2023-04-30T11:19:46;209.80;;;57.65;;
10305;SDS011;5198;52.382;9.020;2023-04-30T11:23:51;211.25;;;57.90;;
10305;SDS011;5198;52.382;9.020;2023-04-30T11:28:03;209.70;;;57.30;;
10305;SDS011;5198;52.382;9.020;2023-04-30T11:32:07;212.37;;;57.93;;
10305;SDS011;5198;52.382;9.020;2023-04-30T11:36:11;211.50;;;57.70;;
10305;SDS011;5198;52.382;9.020;2023-04-30T11:40:18;208.00;;;56.17;;
10305;SDS011;5198;52.382;9.020;2023-04-30T11:44:22;211.40;;;57.60;;
10305;SDS011;5198;52.382;9.020;2023-04-30T11:48:30;210.50;;;57.40;;
10305;SDS011;5198;52.382;9.020;2023-04-30T11:52:33;208.45;;;57.10;;
10305;SDS011;5198;52.382;9.020;2023-04-30T11:56:38;208.55;;;57.05;;
10305;SDS011;5198;52.382;9.020;2023-04-30T12:00:50;206.05;;;56.30;;
10305;SDS011;5198;52.382;9.020;2023-04-30T12:04:53;212.85;;;58.25;;
10305;SDS011;5198;52.382;9.020;2023-04-30T12:08:57;206.20;;;55.35;;
10305;SDS011;5198;52.382;9.020;2023-04-30T12:13:01;208.60;;;57.03;;
10305;SDS011;5198;52.382;9.020;2023-04-30T12:17:06;207.65;;;56.90;;
10305;SDS011;5198;52.382;9.020;2023-04-30T12:21:09;207.25;;;57.05;;
10305;SDS011;5198;52.382;9.020;2023-04-30T12:25:13;207.35;;;56.70;;
10305;SDS011;5198;52.382;9.020;2023-04-30T12:29:21;205.93;;;56.43;;
10305;SDS011;5198;52.382;9.020;2023-04-30T12:33:27;207.70;;;56.90;;
10305;SDS011;5198;52.382;9.020;2023-04-30T12:37:32;208.60;;;57.20;;
10305;SDS011;5198;52.382;9.020;2023-04-30T12:41:35;204.27;;;55.90;;
10305;SDS011;5198;52.382;9.020;2023-04-30T12:45:42;205.20;;;56.50;;
10305;SDS011;5198;52.382;9.020;2023-04-30T12:49:48;203.00;;;55.15;;
10305;SDS011;5198;52.382;9.020;2023-04-30T12:53:51;206.57;;;56.63;;
10305;SDS011;5198;52.382;9.020;2023-04-30T12:58:05;206.20;;;56.83;;
10305;SDS011;5198;52.382;9.020;2023-04-30T13:02:10;205.20;;;56.53;;
10305;SDS011;5198;52.382;9.020;2023-04-30T13:06:15;204.88;;;56.22;;
10305;SDS011;5198;52.382;9.020;2023-04-30T13:10:19;203.93;;;56.17;;
10305;SDS011;5198;52.382;9.020;2023-04-30T13:14:22;206.80;;;56.85;;
10305;SDS011;5198;52.382;9.020;2023-04-30T13:18:25;207.00;;;57.30;;
10305;SDS011;5198;52.382;9.020;2023-04-30T13:22:30;203.83;;;57.00;;
10305;SDS011;5198;52.382;9.020;2023-04-30T13:26:33;202.05;;;55.80;;
10305;SDS011;5198;52.382;9.020;2023-04-30T13:30:36;203.25;;;55.80;;
10305;SDS011;5198;52.382;9.020;2023-04-30T13:34:40;204.38;;;56.28;;
10305;SDS011;5198;52.382;9.020;2023-04-30T13:38:44;206.33;;;56.63;;
10305;SDS011;5198;52.382;9.020;2023-04-30T13:42:48;204.70;;;56.10;;
10305;SDS011;5198;52.382;9.020;2023-04-30T13:46:51;205.73;;;56.30;;
10305;SDS011;5198;52.382;9.020;2023-04-30T13:50:54;204.90;;;56.40;;
10305;SDS011;5198;52.382;9.020;2023-04-30T13:54:58;203.18;;;55.30;;
10305;SDS011;5198;52.382;9.020;2023-04-30T13:59:02;205.70;;;56.30;;
10305;SDS011;5198;52.382;9.020;2023-04-30T14:03:05;204.00;;;55.80;;
10305;SDS011;5198;52.382;9.020;2023-04-30T14:07:09;204.70;;;56.47;;
10305;SDS011;5198;52.382;9.020;2023-04-30T14:11:14;205.95;;;56.45;;
10305;SDS011;5198;52.382;9.020;2023-04-30T14:19:55;206.45;;;56.10;;
10305;SDS011;5198;52.382;9.020;2023-04-30T14:23:58;205.90;;;56.03;;
10305;SDS011;5198;52.382;9.020;2023-04-30T14:28:04;207.10;;;56.50;;
10305;SDS011;5198;52.382;9.020;2023-04-30T14:36:12;203.88;;;55.58;;
10305;SDS011;5198;52.382;9.020;2023-04-30T14:40:21;210.00;;;55.75;;
10305;SDS011;5198;52.382;9.020;2023-04-30T14:48:30;207.98;;;56.72;;
10305;SDS011;5198;52.382;9.020;2023-04-30T14:52:35;208.60;;;56.95;;
10305;SDS011;5198;52.382;9.020;2023-04-30T14:56:39;205.90;;;56.65;;
10305;SDS011;5198;52.382;9.020;2023-04-30T15:00:51;205.85;;;56.95;;
10305;SDS011;5198;52.382;9.020;2023-04-30T15:05:02;207.15;;;57.35;;
10305;SDS011;5198;52.382;9.020;2023-04-30T15:13:24;203.20;;;56.23;;
10305;SDS011;5198;52.382;9.020;2023-04-30T15:17:29;203.27;;;56.38;;
10305;SDS011;5198;52.382;9.020;2023-04-30T15:25:37;218.00;;;60.15;;
10305;SDS011;5198;52.382;9.020;2023-04-30T15:29:41;213.02;;;58.40;;
10305;SDS011;5198;52.382;9.020;2023-04-30T15:33:46;211.88;;;57.72;;
10305;SDS011;5198;52.382;9.020;2023-04-30T15:37:49;208.43;;;57.10;;
10305;SDS011;5198;52.382;9.020;2023-04-30T15:41:52;212.20;;;56.80;;
10305;SDS011;5198;52.382;9.020;2023-04-30T15:45:55;206.75;;;57.08;;
10305;SDS011;5198;52.382;9.020;2023-04-30T15:49:59;205.95;;;56.30;;
10305;SDS011;5198;52.382;9.020;2023-04-30T15:54:07;216.15;;;57.35;;
10305;SDS011;5198;52.382;9.020;2023-04-30T15:58:11;211.50;;;57.10;;
10305;SDS011;5198;52.382;9.020;2023-04-30T16:02:15;222.65;;;58.30;;
10305;SDS011;5198;52.382;9.020;2023-04-30T16:06:21;213.63;;;57.50;;
10305;SDS011;5198;52.382;9.020;2023-04-30T16:10:25;216.25;;;57.15;;
10305;SDS011;5198;52.382;9.020;2023-04-30T16:14:29;225.55;;;58.10;;
10305;SDS011;5198;52.382;9.020;2023-04-30T16:18:32;222.87;;;57.77;;
10305;SDS011;5198;52.382;9.020;2023-04-30T16:22:38;223.63;;;57.70;;
10305;SDS011;5198;52.382;9.020;2023-04-30T16:26:41;223.60;;;57.70;;
10305;SDS011;5198;52.382;9.020;2023-04-30T16:30:47;221.27;;;57.63;;
10305;SDS011;5198;52.382;9.020;2023-04-30T16:34:50;213.75;;;57.10;;
10305;SDS011;5198;52.382;9.020;2023-04-30T16:38:55;218.57;;;57.50;;
10305;SDS011;5198;52.382;9.020;2023-04-30T16:42:58;220.05;;;57.60;;
10305;SDS011;5198;52.382;9.020;2023-04-30T16:47:01;217.23;;;57.13;;
10305;SDS011;5198;52.382;9.020;2023-04-30T16:51:04;212.50;;;56.00;;
10305;SDS011;5198;52.382;9.020;2023-04-30T16:55:11;215.90;;;57.10;;
10305;SDS011;5198;52.382;9.020;2023-04-30T16:59:29;217.43;;;57.40;;
10305;SDS011;5198;52.382;9.020;2023-04-30T17:03:32;217.20;;;57.15;;
10305;SDS011;5198;52.382;9.020;2023-04-30T17:07:35;217.77;;;56.88;;
10305;SDS011;5198;52.382;9.020;2023-04-30T17:11:40;217.87;;;57.33;;
10305;SDS011;5198;52.382;9.020;2023-04-30T17:15:43;215.70;;;56.90;;
10305;SDS011;5198;52.382;9.020;2023-04-30T17:19:46;216.05;;;57.05;;
10305;SDS011;5198;52.382;9.020;2023-04-30T17:23:49;215.90;;;57.23;;
10305;SDS011;5198;52.382;9.020;2023-04-30T17:32:16;245.15;;;62.00;;
10305;SDS011;5198;52.382;9.020;2023-04-30T17:36:19;214.80;;;58.13;;
10305;SDS011;5198;52.382;9.020;2023-04-30T17:40:22;216.10;;;58.50;;
10305;SDS011;5198;52.382;9.020;2023-04-30T17:44:27;214.52;;;58.30;;
10305;SDS011;5198;52.382;9.020;2023-04-30T17:48:31;210.30;;;57.20;;
10305;SDS011;5198;52.382;9.020;2023-04-30T17:52:35;213.27;;;58.05;;
10305;SDS011;5198;52.382;9.020;2023-04-30T17:56:39;211.77;;;57.38;;
10305;SDS011;5198;52.382;9.020;2023-04-30T18:00:43;213.10;;;58.30;;
10305;SDS011;5198;52.382;9.020;2023-04-30T18:04:47;210.35;;;57.00;;
10305;SDS011;5198;52.382;9.020;2023-04-30T18:08:50;212.90;;;58.20;;
10305;SDS011;5198;52.382;9.020;2023-04-30T18:12:56;212.97;;;58.37;;
10305;SDS011;5198;52.382;9.020;2023-04-30T18:17:01;210.70;;;57.50;;
10305;SDS011;5198;52.382;9.020;2023-04-30T18:21:04;207.65;;;56.70;;
10305;SDS011;5198;52.382;9.020;2023-04-30T18:25:08;209.10;;;58.27;;
10305;SDS011;5198;52.382;9.020;2023-04-30T18:29:13;211.40;;;58.10;;
10305;SDS011;5198;52.382;9.020;2023-04-30T18:33:19;210.20;;;58.35;;
10305;SDS011;5198;52.382;9.020;2023-04-30T18:37:22;214.95;;;59.90;;
10305;SDS011;5198;52.382;9.020;2023-04-30T18:41:25;215.15;;;60.40;;
10305;SDS011;5198;52.382;9.020;2023-04-30T18:45:29;212.20;;;58.90;;
10305;SDS011;5198;52.382;9.020;2023-04-30T18:49:34;214.85;;;60.15;;
10305;SDS011;5198;52.382;9.020;2023-04-30T18:53:37;212.95;;;59.17;;
10305;SDS011;5198;52.382;9.020;2023-04-30T18:57:42;212.15;;;59.10;;
10305;SDS011;5198;52.382;9.020;2023-04-30T19:01:45;209.55;;;58.55;;
10305;SDS011;5198;52.382;9.020;2023-04-30T19:05:53;210.10;;;58.90;;
10305;SDS011;5198;52.382;9.020;2023-04-30T19:09:57;213.60;;;60.60;;
10305;SDS011;5198;52.382;9.020;2023-04-30T19:14:00;211.45;;;59.45;;
10305;SDS011;5198;52.382;9.020;2023-04-30T19:18:04;209.10;;;58.90;;
10305;SDS011;5198;52.382;9.020;2023-04-30T19:22:08;209.40;;;59.20;;
10305;SDS011;5198;52.382;9.020;2023-04-30T19:26:12;212.50;;;60.10;;
10305;SDS011;5198;52.382;9.020;2023-04-30T19:30:16;213.40;;;60.40;;
10305;SDS011;5198;52.382;9.020;2023-04-30T19:34:19;212.10;;;60.30;;
10305;SDS011;5198;52.382;9.020;2023-04-30T19:38:24;208.70;;;58.95;;
10305;SDS011;5198;52.382;9.020;2023-04-30T19:42:27;206.53;;;58.20;;
10305;SDS011;5198;52.382;9.020;2023-04-30T19:46:32;206.10;;;57.63;;
10305;SDS011;5198;52.382;9.020;2023-04-30T19:50:38;205.93;;;57.60;;
10305;SDS011;5198;52.382;9.020;2023-04-30T19:54:44;206.40;;;59.07;;
10305;SDS011;5198;52.382;9.020;2023-04-30T19:58:50;204.80;;;57.90;;
10305;SDS011;5198;52.382;9.020;2023-04-30T20:06:56;209.65;;;59.95;;
10305;SDS011;5198;52.382;9.020;2023-04-30T20:11:02;202.10;;;56.80;;
10305;SDS011;5198;52.382;9.020;2023-04-30T20:15:05;198.80;;;56.53;;
10305;SDS011;5198;52.382;9.020;2023-04-30T20:23:14;200.17;;;56.13;;
10305;SDS011;5198;52.382;9.020;2023-04-30T20:27:19;199.90;;;56.30;;
10305;SDS011;5198;52.382;9.020;2023-04-30T20:31:22;202.05;;;57.25;;
10305;SDS011;5198;52.382;9.020;2023-04-30T20:35:25;195.60;;;54.95;;
10305;SDS011;5198;52.382;9.020;2023-04-30T20:39:29;198.20;;;55.75;;
10305;SDS011;5198;52.382;9.020;2023-04-30T20:43:33;196.70;;;55.30;;
10305;SDS011;5198;52.382;9.020;2023-04-30T20:47:38;195.33;;;54.80;;
10305;SDS011;5198;52.382;9.020;2023-04-30T20:51:41;197.80;;;55.75;;
10305;SDS011;5198;52.382;9.020;2023-04-30T20:55:44;197.70;;;55.80;;
10305;SDS011;5198;52.382;9.020;2023-04-30T20:59:48;194.10;;;54.73;;
10305;SDS011;5198;52.382;9.020;2023-04-30T21:03:51;193.65;;;55.40;;
10305;SDS011;5198;52.382;9.020;2023-04-30T21:07:55;193.40;;;55.40;;
10305;SDS011;5198;52.382;9.020;2023-04-30T21:12:01;191.10;;;54.95;;
10305;SDS011;5198;52.382;9.020;2023-04-30T21:16:07;191.90;;;54.60;;
10305;SDS011;5198;52.382;9.020;2023-04-30T21:20:10;192.33;;;55.00;;
10305;SDS011;5198;52.382;9.020;2023-04-30T21:24:14;191.68;;;55.00;;
10305;SDS011;5198;52.382;9.020;2023-04-30T21:28:17;171.43;;;52.78;;
10305;SDS011;5198;52.382;9.020;2023-04-30T21:32:21;199.37;;;56.80;;
10305;SDS011;5198;52.382;9.020;2023-04-30T21:36:24;191.60;;;54.60;;
10305;SDS011;5198;52.382;9.020;2023-04-30T21:40:29;194.83;;;55.27;;
10305;SDS011;5198;52.382;9.020;2023-04-30T21:44:33;192.93;;;54.65;;
10305;SDS011;5198;52.382;9.020;2023-04-30T21:48:38;193.43;;;54.90;;
10305;SDS011;5198;52.382;9.020;2023-04-30T21:52:41;193.85;;;55.10;;
10305;SDS011;5198;52.382;9.020;2023-04-30T21:56:44;190.80;;;53.95;;
10305;SDS011;5198;52.382;9.020;2023-04-30T22:00:47;197.60;;;55.85;;
10305;SDS011;5198;52.382;9.020;2023-04-30T22:04:52;194.20;;;54.97;;
10305;SDS011;5198;52.382;9.020;2023-04-30T22:08:55;194.10;;;54.58;;
10305;SDS011;5198;52.382;9.020;2023-04-30T22:12:58;194.60;;;54.80;;
